sensor_id;sensor_type;location;lat;lon;timestamp;P1;durP1;ratioP1;P2;durP2;ratioP2
77518;SDS011;66629;47.346;19.038;2023-06-10T00:02:25;11.43;;;8.35;;
77518;SDS011;66629;47.346;19.038;2023-06-10T00:04:52;9.82;;;7.90;;
77518;SDS011;66629;47.346;19.038;2023-06-10T00:07:17;8.63;;;7.72;;
77518;SDS011;66629;47.346;19.038;2023-06-10T00:09:43;11.75;;;7.88;;
77518;SDS011;66629;47.346;19.038;2023-06-10T00:12:08;13.32;;;8.38;;
77518;SDS011;66629;47.346;19.038;2023-06-10T00:14:38;12.02;;;8.30;;
77518;SDS011;66629;47.346;19.038;2023-06-10T00:17:08;8.95;;;7.22;;
77518;SDS011;66629;47.346;19.038;2023-06-10T00:19:36;10.85;;;7.88;;
77518;SDS011;66629;47.346;19.038;2023-06-10T00:22:06;8.52;;;7.22;;
77518;SDS011;66629;47.346;19.038;2023-06-10T00:24:32;10.00;;;7.70;;
77518;SDS011;66629;47.346;19.038;2023-06-10T00:26:57;10.10;;;8.05;;
77518;SDS011;66629;47.346;19.038;2023-06-10T00:29:23;9.45;;;8.20;;
77518;SDS011;66629;47.346;19.038;2023-06-10T00:31:48;10.48;;;8.38;;
77518;SDS011;66629;47.346;19.038;2023-06-10T00:34:14;13.18;;;8.95;;
77518;SDS011;66629;47.346;19.038;2023-06-10T00:36:39;10.25;;;8.57;;
77518;SDS011;66629;47.346;19.038;2023-06-10T00:39:05;13.27;;;9.02;;
77518;SDS011;66629;47.346;19.038;2023-06-10T00:41:31;13.48;;;9.82;;
77518;SDS011;66629;47.346;19.038;2023-06-10T00:43:58;12.38;;;9.60;;
77518;SDS011;66629;47.346;19.038;2023-06-10T00:46:24;9.90;;;8.40;;
77518;SDS011;66629;47.346;19.038;2023-06-10T00:48:51;9.57;;;7.57;;
77518;SDS011;66629;47.346;19.038;2023-06-10T00:51:17;10.70;;;9.25;;
77518;SDS011;66629;47.346;19.038;2023-06-10T00:53:43;9.73;;;8.27;;
77518;SDS011;66629;47.346;19.038;2023-06-10T00:56:09;12.18;;;8.95;;
77518;SDS011;66629;47.346;19.038;2023-06-10T00:58:35;12.32;;;8.10;;
77518;SDS011;66629;47.346;19.038;2023-06-10T01:01:01;9.50;;;8.45;;
77518;SDS011;66629;47.346;19.038;2023-06-10T01:03:27;10.38;;;8.07;;
77518;SDS011;66629;47.346;19.038;2023-06-10T01:06:08;11.82;;;8.40;;
77518;SDS011;66629;47.346;19.038;2023-06-10T01:11:13;13.57;;;9.13;;
77518;SDS011;66629;47.346;19.038;2023-06-10T01:13:44;11.90;;;10.57;;
77518;SDS011;66629;47.346;19.038;2023-06-10T01:16:11;13.05;;;9.77;;
77518;SDS011;66629;47.346;19.038;2023-06-10T01:18:36;12.63;;;10.40;;
77518;SDS011;66629;47.346;19.038;2023-06-10T01:21:03;16.75;;;11.45;;
77518;SDS011;66629;47.346;19.038;2023-06-10T01:23:29;13.18;;;10.05;;
77518;SDS011;66629;47.346;19.038;2023-06-10T01:28:36;12.97;;;10.47;;
77518;SDS011;66629;47.346;19.038;2023-06-10T01:31:16;13.15;;;10.95;;
77518;SDS011;66629;47.346;19.038;2023-06-10T01:33:47;13.02;;;9.52;;
77518;SDS011;66629;47.346;19.038;2023-06-10T01:36:16;12.73;;;9.90;;
77518;SDS011;66629;47.346;19.038;2023-06-10T01:38:44;11.32;;;9.15;;
77518;SDS011;66629;47.346;19.038;2023-06-10T01:41:15;12.60;;;10.27;;
77518;SDS011;66629;47.346;19.038;2023-06-10T01:43:42;10.63;;;8.32;;
77518;SDS011;66629;47.346;19.038;2023-06-10T01:46:09;9.10;;;8.10;;
77518;SDS011;66629;47.346;19.038;2023-06-10T01:48:36;9.13;;;8.23;;
77518;SDS011;66629;47.346;19.038;2023-06-10T01:51:02;12.07;;;9.27;;
77518;SDS011;66629;47.346;19.038;2023-06-10T01:53:28;10.38;;;8.25;;
77518;SDS011;66629;47.346;19.038;2023-06-10T01:55:53;10.57;;;9.32;;
77518;SDS011;66629;47.346;19.038;2023-06-10T01:58:19;12.30;;;9.18;;
77518;SDS011;66629;47.346;19.038;2023-06-10T02:00:44;10.63;;;9.07;;
77518;SDS011;66629;47.346;19.038;2023-06-10T02:03:09;14.15;;;10.65;;
77518;SDS011;66629;47.346;19.038;2023-06-10T02:05:35;13.20;;;10.25;;
77518;SDS011;66629;47.346;19.038;2023-06-10T02:08:00;11.18;;;8.43;;
77518;SDS011;66629;47.346;19.038;2023-06-10T02:10:26;16.77;;;11.70;;
77518;SDS011;66629;47.346;19.038;2023-06-10T02:12:51;16.73;;;11.70;;
77518;SDS011;66629;47.346;19.038;2023-06-10T02:15:17;14.65;;;11.60;;
77518;SDS011;66629;47.346;19.038;2023-06-10T02:17:42;17.63;;;12.95;;
77518;SDS011;66629;47.346;19.038;2023-06-10T02:20:09;16.13;;;12.38;;
77518;SDS011;66629;47.346;19.038;2023-06-10T02:22:36;16.90;;;11.98;;
77518;SDS011;66629;47.346;19.038;2023-06-10T02:25:02;16.60;;;12.13;;
77518;SDS011;66629;47.346;19.038;2023-06-10T02:27:28;19.40;;;13.40;;
77518;SDS011;66629;47.346;19.038;2023-06-10T02:29:54;17.33;;;13.90;;
77518;SDS011;66629;47.346;19.038;2023-06-10T02:32:19;18.40;;;13.77;;
77518;SDS011;66629;47.346;19.038;2023-06-10T02:34:45;18.98;;;14.27;;
77518;SDS011;66629;47.346;19.038;2023-06-10T02:37:10;18.80;;;13.70;;
77518;SDS011;66629;47.346;19.038;2023-06-10T02:39:36;20.52;;;15.20;;
77518;SDS011;66629;47.346;19.038;2023-06-10T02:42:01;17.42;;;13.77;;
77518;SDS011;66629;47.346;19.038;2023-06-10T02:44:27;18.63;;;14.15;;
77518;SDS011;66629;47.346;19.038;2023-06-10T02:46:52;18.40;;;14.65;;
77518;SDS011;66629;47.346;19.038;2023-06-10T02:49:18;20.27;;;14.35;;
77518;SDS011;66629;47.346;19.038;2023-06-10T02:51:43;17.92;;;14.07;;
77518;SDS011;66629;47.346;19.038;2023-06-10T02:54:09;14.77;;;11.98;;
77518;SDS011;66629;47.346;19.038;2023-06-10T02:56:34;15.30;;;12.85;;
77518;SDS011;66629;47.346;19.038;2023-06-10T02:59:01;15.32;;;12.68;;
77518;SDS011;66629;47.346;19.038;2023-06-10T03:01:26;16.10;;;13.05;;
77518;SDS011;66629;47.346;19.038;2023-06-10T03:03:52;16.35;;;13.10;;
77518;SDS011;66629;47.346;19.038;2023-06-10T03:06:17;15.60;;;12.30;;
77518;SDS011;66629;47.346;19.038;2023-06-10T03:08:43;19.10;;;11.88;;
77518;SDS011;66629;47.346;19.038;2023-06-10T03:11:09;15.45;;;12.15;;
77518;SDS011;66629;47.346;19.038;2023-06-10T03:13:35;13.43;;;10.50;;
77518;SDS011;66629;47.346;19.038;2023-06-10T03:16:00;12.75;;;10.38;;
77518;SDS011;66629;47.346;19.038;2023-06-10T03:18:28;14.10;;;10.30;;
77518;SDS011;66629;47.346;19.038;2023-06-10T03:20:54;14.52;;;10.25;;
77518;SDS011;66629;47.346;19.038;2023-06-10T03:23:20;12.88;;;10.77;;
77518;SDS011;66629;47.346;19.038;2023-06-10T03:25:45;12.25;;;10.52;;
77518;SDS011;66629;47.346;19.038;2023-06-10T03:28:11;11.63;;;9.93;;
77518;SDS011;66629;47.346;19.038;2023-06-10T03:30:37;12.90;;;9.90;;
77518;SDS011;66629;47.346;19.038;2023-06-10T03:33:02;13.68;;;9.40;;
77518;SDS011;66629;47.346;19.038;2023-06-10T03:35:28;12.32;;;9.02;;
77518;SDS011;66629;47.346;19.038;2023-06-10T03:37:55;13.43;;;9.07;;
77518;SDS011;66629;47.346;19.038;2023-06-10T03:40:21;9.98;;;8.27;;
77518;SDS011;66629;47.346;19.038;2023-06-10T03:42:46;10.90;;;7.72;;
77518;SDS011;66629;47.346;19.038;2023-06-10T03:45:12;10.82;;;7.97;;
77518;SDS011;66629;47.346;19.038;2023-06-10T03:47:38;9.25;;;8.02;;
77518;SDS011;66629;47.346;19.038;2023-06-10T03:50:05;11.02;;;7.88;;
77518;SDS011;66629;47.346;19.038;2023-06-10T03:52:33;10.50;;;7.32;;
77518;SDS011;66629;47.346;19.038;2023-06-10T03:54:58;8.10;;;6.80;;
77518;SDS011;66629;47.346;19.038;2023-06-10T03:57:24;10.48;;;7.75;;
77518;SDS011;66629;47.346;19.038;2023-06-10T03:59:49;11.98;;;7.43;;
77518;SDS011;66629;47.346;19.038;2023-06-10T04:02:14;8.93;;;7.72;;
77518;SDS011;66629;47.346;19.038;2023-06-10T04:04:41;10.68;;;7.55;;
77518;SDS011;66629;47.346;19.038;2023-06-10T04:07:06;10.20;;;7.43;;
77518;SDS011;66629;47.346;19.038;2023-06-10T04:09:34;12.70;;;7.35;;
77518;SDS011;66629;47.346;19.038;2023-06-10T04:12:00;8.65;;;6.85;;
77518;SDS011;66629;47.346;19.038;2023-06-10T04:14:26;10.40;;;7.18;;
77518;SDS011;66629;47.346;19.038;2023-06-10T04:16:52;8.25;;;7.20;;
77518;SDS011;66629;47.346;19.038;2023-06-10T04:19:18;9.30;;;6.82;;
77518;SDS011;66629;47.346;19.038;2023-06-10T04:21:43;9.73;;;6.95;;
77518;SDS011;66629;47.346;19.038;2023-06-10T04:24:09;9.13;;;7.13;;
77518;SDS011;66629;47.346;19.038;2023-06-10T04:26:37;7.38;;;6.30;;
77518;SDS011;66629;47.346;19.038;2023-06-10T04:29:03;8.48;;;6.75;;
77518;SDS011;66629;47.346;19.038;2023-06-10T04:31:28;10.25;;;7.07;;
77518;SDS011;66629;47.346;19.038;2023-06-10T04:33:54;8.25;;;6.93;;
77518;SDS011;66629;47.346;19.038;2023-06-10T04:36:20;9.13;;;7.25;;
77518;SDS011;66629;47.346;19.038;2023-06-10T04:38:45;10.15;;;7.18;;
77518;SDS011;66629;47.346;19.038;2023-06-10T04:41:11;8.77;;;6.50;;
77518;SDS011;66629;47.346;19.038;2023-06-10T04:43:37;9.00;;;6.53;;
77518;SDS011;66629;47.346;19.038;2023-06-10T04:46:03;6.65;;;5.68;;
77518;SDS011;66629;47.346;19.038;2023-06-10T04:48:29;6.88;;;5.97;;
77518;SDS011;66629;47.346;19.038;2023-06-10T04:50:54;7.60;;;5.70;;
77518;SDS011;66629;47.346;19.038;2023-06-10T04:53:21;8.23;;;5.50;;
77518;SDS011;66629;47.346;19.038;2023-06-10T04:55:47;6.03;;;4.88;;
77518;SDS011;66629;47.346;19.038;2023-06-10T04:58:13;9.10;;;5.18;;
77518;SDS011;66629;47.346;19.038;2023-06-10T05:00:39;5.93;;;5.03;;
77518;SDS011;66629;47.346;19.038;2023-06-10T05:03:05;8.57;;;5.45;;
77518;SDS011;66629;47.346;19.038;2023-06-10T05:05:30;7.50;;;5.40;;
77518;SDS011;66629;47.346;19.038;2023-06-10T05:07:55;7.95;;;5.28;;
77518;SDS011;66629;47.346;19.038;2023-06-10T05:10:21;5.90;;;4.93;;
77518;SDS011;66629;47.346;19.038;2023-06-10T05:12:46;5.57;;;4.97;;
77518;SDS011;66629;47.346;19.038;2023-06-10T05:15:12;6.50;;;5.10;;
77518;SDS011;66629;47.346;19.038;2023-06-10T05:17:37;5.43;;;4.65;;
77518;SDS011;66629;47.346;19.038;2023-06-10T05:20:03;6.13;;;4.20;;
77518;SDS011;66629;47.346;19.038;2023-06-10T05:22:28;5.30;;;4.38;;
77518;SDS011;66629;47.346;19.038;2023-06-10T05:24:54;4.88;;;4.07;;
77518;SDS011;66629;47.346;19.038;2023-06-10T05:27:19;5.05;;;3.92;;
77518;SDS011;66629;47.346;19.038;2023-06-10T05:29:46;6.15;;;3.95;;
77518;SDS011;66629;47.346;19.038;2023-06-10T05:32:11;6.15;;;3.75;;
77518;SDS011;66629;47.346;19.038;2023-06-10T05:34:37;5.32;;;3.88;;
77518;SDS011;66629;47.346;19.038;2023-06-10T05:37:02;5.05;;;3.97;;
77518;SDS011;66629;47.346;19.038;2023-06-10T05:39:28;5.95;;;3.92;;
77518;SDS011;66629;47.346;19.038;2023-06-10T05:41:53;6.10;;;4.20;;
77518;SDS011;66629;47.346;19.038;2023-06-10T05:44:19;5.07;;;4.05;;
77518;SDS011;66629;47.346;19.038;2023-06-10T05:46:44;4.80;;;3.65;;
77518;SDS011;66629;47.346;19.038;2023-06-10T05:49:10;5.18;;;4.57;;
77518;SDS011;66629;47.346;19.038;2023-06-10T05:51:35;8.45;;;4.63;;
77518;SDS011;66629;47.346;19.038;2023-06-10T05:54:01;4.97;;;4.43;;
77518;SDS011;66629;47.346;19.038;2023-06-10T05:56:27;5.15;;;4.20;;
77518;SDS011;66629;47.346;19.038;2023-06-10T05:58:54;8.40;;;3.85;;
77518;SDS011;66629;47.346;19.038;2023-06-10T06:01:20;5.25;;;4.18;;
77518;SDS011;66629;47.346;19.038;2023-06-10T06:03:45;5.80;;;3.80;;
77518;SDS011;66629;47.346;19.038;2023-06-10T06:06:11;5.38;;;4.00;;
77518;SDS011;66629;47.346;19.038;2023-06-10T06:08:36;6.15;;;3.92;;
77518;SDS011;66629;47.346;19.038;2023-06-10T06:11:02;5.53;;;3.88;;
77518;SDS011;66629;47.346;19.038;2023-06-10T06:13:27;6.18;;;4.47;;
77518;SDS011;66629;47.346;19.038;2023-06-10T06:15:52;4.80;;;3.85;;
77518;SDS011;66629;47.346;19.038;2023-06-10T06:18:18;5.10;;;3.83;;
77518;SDS011;66629;47.346;19.038;2023-06-10T06:20:43;5.65;;;4.18;;
77518;SDS011;66629;47.346;19.038;2023-06-10T06:23:09;5.13;;;4.15;;
77518;SDS011;66629;47.346;19.038;2023-06-10T06:25:36;5.80;;;3.38;;
77518;SDS011;66629;47.346;19.038;2023-06-10T06:28:03;4.15;;;3.63;;
77518;SDS011;66629;47.346;19.038;2023-06-10T06:30:34;6.63;;;3.70;;
77518;SDS011;66629;47.346;19.038;2023-06-10T06:32:59;4.22;;;3.55;;
77518;SDS011;66629;47.346;19.038;2023-06-10T06:35:25;4.85;;;3.80;;
77518;SDS011;66629;47.346;19.038;2023-06-10T06:37:50;8.20;;;4.22;;
77518;SDS011;66629;47.346;19.038;2023-06-10T06:40:15;4.78;;;3.92;;
77518;SDS011;66629;47.346;19.038;2023-06-10T06:42:41;4.93;;;4.10;;
77518;SDS011;66629;47.346;19.038;2023-06-10T06:45:06;5.07;;;3.83;;
77518;SDS011;66629;47.346;19.038;2023-06-10T06:47:32;5.53;;;4.82;;
77518;SDS011;66629;47.346;19.038;2023-06-10T06:49:57;5.85;;;4.50;;
77518;SDS011;66629;47.346;19.038;2023-06-10T06:52:23;5.78;;;5.03;;
77518;SDS011;66629;47.346;19.038;2023-06-10T06:54:48;6.25;;;4.38;;
77518;SDS011;66629;47.346;19.038;2023-06-10T06:57:14;4.30;;;3.45;;
77518;SDS011;66629;47.346;19.038;2023-06-10T06:59:39;4.45;;;3.75;;
77518;SDS011;66629;47.346;19.038;2023-06-10T07:02:05;4.50;;;3.75;;
77518;SDS011;66629;47.346;19.038;2023-06-10T07:04:31;7.40;;;3.97;;
77518;SDS011;66629;47.346;19.038;2023-06-10T07:06:56;5.40;;;3.67;;
77518;SDS011;66629;47.346;19.038;2023-06-10T07:09:22;5.90;;;4.03;;
77518;SDS011;66629;47.346;19.038;2023-06-10T07:11:47;5.25;;;3.67;;
77518;SDS011;66629;47.346;19.038;2023-06-10T07:14:13;5.20;;;4.32;;
77518;SDS011;66629;47.346;19.038;2023-06-10T07:16:38;4.63;;;3.95;;
77518;SDS011;66629;47.346;19.038;2023-06-10T07:19:03;4.70;;;4.18;;
77518;SDS011;66629;47.346;19.038;2023-06-10T07:21:32;4.70;;;4.20;;
77518;SDS011;66629;47.346;19.038;2023-06-10T07:23:59;5.38;;;4.50;;
77518;SDS011;66629;47.346;19.038;2023-06-10T07:26:24;5.78;;;4.95;;
77518;SDS011;66629;47.346;19.038;2023-06-10T07:28:50;6.13;;;4.45;;
77518;SDS011;66629;47.346;19.038;2023-06-10T07:31:16;6.72;;;4.93;;
77518;SDS011;66629;47.346;19.038;2023-06-10T07:33:42;6.88;;;5.20;;
77518;SDS011;66629;47.346;19.038;2023-06-10T07:36:08;5.22;;;4.70;;
77518;SDS011;66629;47.346;19.038;2023-06-10T07:38:34;8.43;;;5.22;;
77518;SDS011;66629;47.346;19.038;2023-06-10T07:41:00;5.65;;;5.10;;
77518;SDS011;66629;47.346;19.038;2023-06-10T07:43:25;7.57;;;4.97;;
77518;SDS011;66629;47.346;19.038;2023-06-10T07:45:52;7.32;;;5.88;;
77518;SDS011;66629;47.346;19.038;2023-06-10T07:48:17;5.18;;;4.50;;
77518;SDS011;66629;47.346;19.038;2023-06-10T07:50:43;9.35;;;5.70;;
77518;SDS011;66629;47.346;19.038;2023-06-10T07:53:08;5.80;;;5.13;;
77518;SDS011;66629;47.346;19.038;2023-06-10T07:55:34;7.32;;;5.18;;
77518;SDS011;66629;47.346;19.038;2023-06-10T07:57:59;6.72;;;5.43;;
77518;SDS011;66629;47.346;19.038;2023-06-10T08:00:25;6.03;;;4.75;;
77518;SDS011;66629;47.346;19.038;2023-06-10T08:02:50;5.63;;;4.05;;
77518;SDS011;66629;47.346;19.038;2023-06-10T08:05:15;5.63;;;4.88;;
77518;SDS011;66629;47.346;19.038;2023-06-10T08:07:41;6.40;;;5.75;;
77518;SDS011;66629;47.346;19.038;2023-06-10T08:10:07;6.13;;;5.40;;
77518;SDS011;66629;47.346;19.038;2023-06-10T08:12:33;5.00;;;4.13;;
77518;SDS011;66629;47.346;19.038;2023-06-10T08:14:59;5.40;;;3.63;;
77518;SDS011;66629;47.346;19.038;2023-06-10T08:17:25;5.47;;;4.68;;
77518;SDS011;66629;47.346;19.038;2023-06-10T08:19:50;6.10;;;4.63;;
77518;SDS011;66629;47.346;19.038;2023-06-10T08:22:16;5.13;;;4.55;;
77518;SDS011;66629;47.346;19.038;2023-06-10T08:24:41;5.03;;;4.30;;
77518;SDS011;66629;47.346;19.038;2023-06-10T08:27:07;4.63;;;4.22;;
77518;SDS011;66629;47.346;19.038;2023-06-10T08:29:32;5.80;;;4.70;;
77518;SDS011;66629;47.346;19.038;2023-06-10T08:31:58;7.20;;;5.32;;
77518;SDS011;66629;47.346;19.038;2023-06-10T08:34:23;6.40;;;5.55;;
77518;SDS011;66629;47.346;19.038;2023-06-10T08:36:49;6.35;;;5.68;;
77518;SDS011;66629;47.346;19.038;2023-06-10T08:39:20;7.55;;;6.15;;
77518;SDS011;66629;47.346;19.038;2023-06-10T08:41:48;8.73;;;6.15;;
77518;SDS011;66629;47.346;19.038;2023-06-10T08:44:35;8.63;;;5.93;;
77518;SDS011;66629;47.346;19.038;2023-06-10T08:47:05;7.00;;;6.05;;
77518;SDS011;66629;47.346;19.038;2023-06-10T08:49:34;7.10;;;6.38;;
77518;SDS011;66629;47.346;19.038;2023-06-10T08:52:06;8.25;;;7.38;;
77518;SDS011;66629;47.346;19.038;2023-06-10T08:54:33;9.45;;;7.10;;
77518;SDS011;66629;47.346;19.038;2023-06-10T08:57:04;8.18;;;7.38;;
77518;SDS011;66629;47.346;19.038;2023-06-10T08:59:33;10.63;;;7.13;;
77518;SDS011;66629;47.346;19.038;2023-06-10T09:01:58;7.22;;;6.35;;
77518;SDS011;66629;47.346;19.038;2023-06-10T09:04:25;7.30;;;6.25;;
77518;SDS011;66629;47.346;19.038;2023-06-10T09:06:52;7.43;;;6.63;;
77518;SDS011;66629;47.346;19.038;2023-06-10T09:09:18;8.18;;;7.10;;
77518;SDS011;66629;47.346;19.038;2023-06-10T09:11:47;8.85;;;7.10;;
77518;SDS011;66629;47.346;19.038;2023-06-10T09:14:13;8.45;;;7.25;;
77518;SDS011;66629;47.346;19.038;2023-06-10T09:16:38;7.47;;;6.70;;
77518;SDS011;66629;47.346;19.038;2023-06-10T09:19:04;10.77;;;7.22;;
77518;SDS011;66629;47.346;19.038;2023-06-10T09:21:33;10.50;;;8.23;;
77518;SDS011;66629;47.346;19.038;2023-06-10T09:24:00;9.40;;;7.45;;
77518;SDS011;66629;47.346;19.038;2023-06-10T09:26:29;10.55;;;8.15;;
77518;SDS011;66629;47.346;19.038;2023-06-10T09:29:13;9.93;;;8.18;;
77518;SDS011;66629;47.346;19.038;2023-06-10T09:31:39;10.57;;;8.80;;
77518;SDS011;66629;47.346;19.038;2023-06-10T09:34:09;10.15;;;8.60;;
77518;SDS011;66629;47.346;19.038;2023-06-10T09:36:39;10.75;;;9.45;;
77518;SDS011;66629;47.346;19.038;2023-06-10T09:39:05;9.20;;;8.02;;
77518;SDS011;66629;47.346;19.038;2023-06-10T09:41:40;10.32;;;8.85;;
77518;SDS011;66629;47.346;19.038;2023-06-10T09:44:19;10.35;;;7.70;;
77518;SDS011;66629;47.346;19.038;2023-06-10T09:46:45;9.35;;;7.85;;
77518;SDS011;66629;47.346;19.038;2023-06-10T09:49:12;12.70;;;8.15;;
77518;SDS011;66629;47.346;19.038;2023-06-10T09:51:37;10.35;;;8.98;;
77518;SDS011;66629;47.346;19.038;2023-06-10T09:54:03;12.27;;;9.40;;
77518;SDS011;66629;47.346;19.038;2023-06-10T09:56:32;11.02;;;8.60;;
77518;SDS011;66629;47.346;19.038;2023-06-10T09:58:59;9.70;;;8.70;;
77518;SDS011;66629;47.346;19.038;2023-06-10T10:01:24;9.68;;;8.65;;
77518;SDS011;66629;47.346;19.038;2023-06-10T10:03:50;11.00;;;8.68;;
77518;SDS011;66629;47.346;19.038;2023-06-10T10:06:16;13.65;;;9.98;;
77518;SDS011;66629;47.346;19.038;2023-06-10T10:08:43;12.95;;;10.43;;
77518;SDS011;66629;47.346;19.038;2023-06-10T10:11:10;13.45;;;12.05;;
77518;SDS011;66629;47.346;19.038;2023-06-10T10:13:37;15.10;;;13.07;;
77518;SDS011;66629;47.346;19.038;2023-06-10T10:16:14;14.65;;;13.15;;
77518;SDS011;66629;47.346;19.038;2023-06-10T10:18:41;15.18;;;13.15;;
77518;SDS011;66629;47.346;19.038;2023-06-10T10:21:11;13.32;;;11.93;;
77518;SDS011;66629;47.346;19.038;2023-06-10T10:23:40;12.93;;;11.52;;
77518;SDS011;66629;47.346;19.038;2023-06-10T10:26:26;15.05;;;11.88;;
77518;SDS011;66629;47.346;19.038;2023-06-10T10:29:01;11.40;;;10.10;;
77518;SDS011;66629;47.346;19.038;2023-06-10T10:31:35;12.25;;;10.02;;
77518;SDS011;66629;47.346;19.038;2023-06-10T10:34:04;10.73;;;9.65;;
77518;SDS011;66629;47.346;19.038;2023-06-10T10:36:34;10.80;;;9.20;;
77518;SDS011;66629;47.346;19.038;2023-06-10T10:39:01;9.40;;;8.50;;
77518;SDS011;66629;47.346;19.038;2023-06-10T10:41:28;7.85;;;7.05;;
77518;SDS011;66629;47.346;19.038;2023-06-10T10:43:55;9.07;;;8.23;;
77518;SDS011;66629;47.346;19.038;2023-06-10T10:46:21;9.07;;;8.18;;
77518;SDS011;66629;47.346;19.038;2023-06-10T10:48:49;9.43;;;8.50;;
77518;SDS011;66629;47.346;19.038;2023-06-10T10:51:17;9.38;;;8.55;;
77518;SDS011;66629;47.346;19.038;2023-06-10T10:53:43;10.60;;;9.50;;
77518;SDS011;66629;47.346;19.038;2023-06-10T10:56:13;10.25;;;9.15;;
77518;SDS011;66629;47.346;19.038;2023-06-10T10:58:40;10.25;;;9.25;;
77518;SDS011;66629;47.346;19.038;2023-06-10T11:01:12;10.68;;;9.68;;
77518;SDS011;66629;47.346;19.038;2023-06-10T11:03:45;10.38;;;9.38;;
77518;SDS011;66629;47.346;19.038;2023-06-10T11:06:15;10.43;;;9.40;;
77518;SDS011;66629;47.346;19.038;2023-06-10T11:11:25;12.05;;;9.88;;
77518;SDS011;66629;47.346;19.038;2023-06-10T11:14:05;11.38;;;10.25;;
77518;SDS011;66629;47.346;19.038;2023-06-10T11:16:40;10.63;;;9.63;;
77518;SDS011;66629;47.346;19.038;2023-06-10T11:19:06;10.75;;;9.65;;
77518;SDS011;66629;47.346;19.038;2023-06-10T11:21:36;10.40;;;9.40;;
77518;SDS011;66629;47.346;19.038;2023-06-10T11:24:22;9.50;;;8.60;;
77518;SDS011;66629;47.346;19.038;2023-06-10T11:26:48;9.05;;;8.23;;
77518;SDS011;66629;47.346;19.038;2023-06-10T11:29:14;8.13;;;7.32;;
77518;SDS011;66629;47.346;19.038;2023-06-10T11:34:06;8.05;;;7.25;;
77518;SDS011;66629;47.346;19.038;2023-06-10T11:36:39;8.52;;;7.72;;
77518;SDS011;66629;47.346;19.038;2023-06-10T11:39:07;9.73;;;7.85;;
77518;SDS011;66629;47.346;19.038;2023-06-10T11:41:34;10.13;;;8.02;;
77518;SDS011;66629;47.346;19.038;2023-06-10T11:44:01;9.27;;;8.35;;
77518;SDS011;66629;47.346;19.038;2023-06-10T11:46:28;10.02;;;8.85;;
77518;SDS011;66629;47.346;19.038;2023-06-10T11:48:56;7.78;;;6.45;;
77518;SDS011;66629;47.346;19.038;2023-06-10T11:51:26;6.70;;;6.00;;
77518;SDS011;66629;47.346;19.038;2023-06-10T11:53:57;6.88;;;6.25;;
77518;SDS011;66629;47.346;19.038;2023-06-10T11:56:23;7.68;;;6.90;;
77518;SDS011;66629;47.346;19.038;2023-06-10T11:58:54;8.25;;;7.07;;
77518;SDS011;66629;47.346;19.038;2023-06-10T12:01:22;8.25;;;7.45;;
77518;SDS011;66629;47.346;19.038;2023-06-10T12:03:58;8.32;;;7.50;;
77518;SDS011;66629;47.346;19.038;2023-06-10T12:06:23;8.57;;;7.53;;
77518;SDS011;66629;47.346;19.038;2023-06-10T12:08:49;8.00;;;6.90;;
77518;SDS011;66629;47.346;19.038;2023-06-10T12:11:14;8.52;;;7.20;;
77518;SDS011;66629;47.346;19.038;2023-06-10T12:13:45;9.90;;;8.68;;
77518;SDS011;66629;47.346;19.038;2023-06-10T12:16:13;9.52;;;8.63;;
77518;SDS011;66629;47.346;19.038;2023-06-10T12:18:39;9.63;;;8.63;;
77518;SDS011;66629;47.346;19.038;2023-06-10T12:21:15;10.10;;;7.97;;
77518;SDS011;66629;47.346;19.038;2023-06-10T12:24:05;9.30;;;8.40;;
77518;SDS011;66629;47.346;19.038;2023-06-10T12:26:36;9.63;;;8.65;;
77518;SDS011;66629;47.346;19.038;2023-06-10T12:29:22;9.45;;;8.55;;
77518;SDS011;66629;47.346;19.038;2023-06-10T12:31:58;10.18;;;9.18;;
77518;SDS011;66629;47.346;19.038;2023-06-10T12:34:36;9.48;;;8.57;;
77518;SDS011;66629;47.346;19.038;2023-06-10T12:37:04;9.25;;;8.35;;
77518;SDS011;66629;47.346;19.038;2023-06-10T12:39:32;9.10;;;8.20;;
77518;SDS011;66629;47.346;19.038;2023-06-10T12:41:59;8.18;;;7.38;;
77518;SDS011;66629;47.346;19.038;2023-06-10T12:44:28;7.80;;;6.93;;
77518;SDS011;66629;47.346;19.038;2023-06-10T12:47:06;6.70;;;6.00;;
77518;SDS011;66629;47.346;19.038;2023-06-10T12:49:33;7.53;;;6.82;;
77518;SDS011;66629;47.346;19.038;2023-06-10T12:52:00;8.38;;;7.57;;
77518;SDS011;66629;47.346;19.038;2023-06-10T12:54:26;9.95;;;7.40;;
77518;SDS011;66629;47.346;19.038;2023-06-10T12:56:51;8.95;;;7.28;;
77518;SDS011;66629;47.346;19.038;2023-06-10T12:59:18;8.05;;;6.50;;
77518;SDS011;66629;47.346;19.038;2023-06-10T13:01:44;8.85;;;7.22;;
77518;SDS011;66629;47.346;19.038;2023-06-10T13:04:15;7.80;;;6.05;;
77518;SDS011;66629;47.346;19.038;2023-06-10T13:06:41;6.65;;;5.97;;
77518;SDS011;66629;47.346;19.038;2023-06-10T13:09:06;6.85;;;6.15;;
77518;SDS011;66629;47.346;19.038;2023-06-10T13:11:32;8.50;;;7.32;;
77518;SDS011;66629;47.346;19.038;2023-06-10T13:13:58;7.07;;;6.38;;
77518;SDS011;66629;47.346;19.038;2023-06-10T13:16:23;7.80;;;6.18;;
77518;SDS011;66629;47.346;19.038;2023-06-10T13:18:48;6.72;;;6.03;;
77518;SDS011;66629;47.346;19.038;2023-06-10T13:21:14;7.82;;;6.18;;
77518;SDS011;66629;47.346;19.038;2023-06-10T13:23:40;7.40;;;6.70;;
77518;SDS011;66629;47.346;19.038;2023-06-10T13:26:05;7.70;;;6.93;;
77518;SDS011;66629;47.346;19.038;2023-06-10T13:28:31;8.35;;;6.60;;
77518;SDS011;66629;47.346;19.038;2023-06-10T13:30:56;7.07;;;6.38;;
77518;SDS011;66629;47.346;19.038;2023-06-10T13:33:22;7.82;;;6.75;;
77518;SDS011;66629;47.346;19.038;2023-06-10T13:35:47;7.97;;;6.50;;
77518;SDS011;66629;47.346;19.038;2023-06-10T13:38:13;7.20;;;6.50;;
77518;SDS011;66629;47.346;19.038;2023-06-10T13:40:38;7.00;;;6.30;;
77518;SDS011;66629;47.346;19.038;2023-06-10T13:43:04;6.65;;;5.90;;
77518;SDS011;66629;47.346;19.038;2023-06-10T13:45:29;3.10;;;2.80;;
77518;SDS011;66629;47.346;19.038;2023-06-10T13:47:55;4.28;;;3.20;;
77518;SDS011;66629;47.346;19.038;2023-06-10T13:50:21;4.63;;;3.50;;
77518;SDS011;66629;47.346;19.038;2023-06-10T13:52:46;3.70;;;3.08;;
77518;SDS011;66629;47.346;19.038;2023-06-10T13:55:11;3.90;;;3.20;;
77518;SDS011;66629;47.346;19.038;2023-06-10T13:57:37;3.42;;;2.60;;
77518;SDS011;66629;47.346;19.038;2023-06-10T14:00:02;3.30;;;3.00;;
77518;SDS011;66629;47.346;19.038;2023-06-10T14:02:28;5.25;;;3.75;;
77518;SDS011;66629;47.346;19.038;2023-06-10T14:04:54;8.95;;;6.68;;
77518;SDS011;66629;47.346;19.038;2023-06-10T14:07:19;8.68;;;4.38;;
77518;SDS011;66629;47.346;19.038;2023-06-10T14:09:44;6.53;;;3.95;;
77518;SDS011;66629;47.346;19.038;2023-06-10T14:12:10;4.43;;;3.30;;
77518;SDS011;66629;47.346;19.038;2023-06-10T14:14:36;4.90;;;3.58;;
77518;SDS011;66629;47.346;19.038;2023-06-10T14:17:01;4.53;;;2.95;;
77518;SDS011;66629;47.346;19.038;2023-06-10T14:19:28;3.65;;;3.33;;
77518;SDS011;66629;47.346;19.038;2023-06-10T14:21:53;6.70;;;3.67;;
77518;SDS011;66629;47.346;19.038;2023-06-10T14:24:20;3.70;;;3.20;;
77518;SDS011;66629;47.346;19.038;2023-06-10T14:26:46;3.97;;;3.15;;
77518;SDS011;66629;47.346;19.038;2023-06-10T14:29:11;4.55;;;3.22;;
77518;SDS011;66629;47.346;19.038;2023-06-10T14:31:39;5.70;;;3.53;;
77518;SDS011;66629;47.346;19.038;2023-06-10T14:34:05;5.03;;;3.08;;
77518;SDS011;66629;47.346;19.038;2023-06-10T14:36:32;4.70;;;3.40;;
77518;SDS011;66629;47.346;19.038;2023-06-10T14:38:58;4.30;;;3.35;;